sensor_id;sensor_type;location;lat;lon;timestamp;temperature;humidity
48946;DHT22;34999;50.940;3.998;2023-11-19T00:01:19;13.40;99.90
48946;DHT22;34999;50.940;3.998;2023-11-19T00:03:48;13.40;99.90
48946;DHT22;34999;50.940;3.998;2023-11-19T00:06:17;13.40;99.90
48946;DHT22;34999;50.940;3.998;2023-11-19T00:08:47;13.50;99.90
48946;DHT22;34999;50.940;3.998;2023-11-19T00:11:15;13.40;99.90
48946;DHT22;34999;50.940;3.998;2023-11-19T00:13:43;13.40;99.90
48946;DHT22;34999;50.940;3.998;2023-11-19T00:16:12;13.40;99.90
48946;DHT22;34999;50.940;3.998;2023-11-19T00:18:40;13.40;99.90
48946;DHT22;34999;50.940;3.998;2023-11-19T00:21:08;13.40;99.90
48946;DHT22;34999;50.940;3.998;2023-11-19T00:23:37;13.40;99.90
48946;DHT22;34999;50.940;3.998;2023-11-19T00:26:07;13.40;99.90
48946;DHT22;34999;50.940;3.998;2023-11-19T00:28:35;13.40;99.90
48946;DHT22;34999;50.940;3.998;2023-11-19T00:31:05;13.40;99.90
48946;DHT22;34999;50.940;3.998;2023-11-19T00:33:34;13.40;99.90
48946;DHT22;34999;50.940;3.998;2023-11-19T00:36:18;13.40;99.90
48946;DHT22;34999;50.940;3.998;2023-11-19T00:38:47;13.40;99.90
48946;DHT22;34999;50.940;3.998;2023-11-19T00:41:16;13.40;99.90
48946;DHT22;34999;50.940;3.998;2023-11-19T00:43:45;13.40;99.90
48946;DHT22;34999;50.940;3.998;2023-11-19T00:46:13;13.30;99.90
48946;DHT22;34999;50.940;3.998;2023-11-19T00:48:41;13.40;99.90
48946;DHT22;34999;50.940;3.998;2023-11-19T00:51:11;13.30;99.90
48946;DHT22;34999;50.940;3.998;2023-11-19T00:53:40;13.20;99.90
48946;DHT22;34999;50.940;3.998;2023-11-19T00:56:08;13.30;99.90
48946;DHT22;34999;50.940;3.998;2023-11-19T00:58:40;13.30;99.90
48946;DHT22;34999;50.940;3.998;2023-11-19T01:01:09;13.20;99.90
48946;DHT22;34999;50.940;3.998;2023-11-19T01:03:37;13.30;99.90
48946;DHT22;34999;50.940;3.998;2023-11-19T01:06:06;13.30;99.90
48946;DHT22;34999;50.940;3.998;2023-11-19T01:08:35;13.30;99.90
48946;DHT22;34999;50.940;3.998;2023-11-19T01:11:04;13.30;99.90
48946;DHT22;34999;50.940;3.998;2023-11-19T01:13:32;13.30;99.90
48946;DHT22;34999;50.940;3.998;2023-11-19T01:16:02;13.30;99.90
48946;DHT22;34999;50.940;3.998;2023-11-19T01:18:30;13.30;99.90
48946;DHT22;34999;50.940;3.998;2023-11-19T01:20:58;13.20;99.90
48946;DHT22;34999;50.940;3.998;2023-11-19T01:23:26;13.10;99.90
48946;DHT22;34999;50.940;3.998;2023-11-19T01:25:54;13.10;99.90
48946;DHT22;34999;50.940;3.998;2023-11-19T01:28:23;13.00;99.90
48946;DHT22;34999;50.940;3.998;2023-11-19T01:30:51;13.00;99.90
48946;DHT22;34999;50.940;3.998;2023-11-19T01:33:21;13.00;99.90
48946;DHT22;34999;50.940;3.998;2023-11-19T01:35:50;13.00;99.90
48946;DHT22;34999;50.940;3.998;2023-11-19T01:38:18;13.00;99.90
48946;DHT22;34999;50.940;3.998;2023-11-19T01:40:47;13.00;99.90
48946;DHT22;34999;50.940;3.998;2023-11-19T01:43:32;13.10;99.90
48946;DHT22;34999;50.940;3.998;2023-11-19T01:46:01;13.10;99.90
48946;DHT22;34999;50.940;3.998;2023-11-19T01:48:31;13.00;99.90
48946;DHT22;34999;50.940;3.998;2023-11-19T01:51:02;13.00;99.90
48946;DHT22;34999;50.940;3.998;2023-11-19T01:53:31;13.00;99.90
48946;DHT22;34999;50.940;3.998;2023-11-19T01:56:00;13.00;99.90
48946;DHT22;34999;50.940;3.998;2023-11-19T01:58:29;13.00;99.90
48946;DHT22;34999;50.940;3.998;2023-11-19T02:00:57;13.00;99.90
48946;DHT22;34999;50.940;3.998;2023-11-19T02:03:26;13.00;99.90
48946;DHT22;34999;50.940;3.998;2023-11-19T02:05:59;12.90;99.90
48946;DHT22;34999;50.940;3.998;2023-11-19T02:08:27;12.90;99.90
48946;DHT22;34999;50.940;3.998;2023-11-19T02:10:56;12.90;99.90
48946;DHT22;34999;50.940;3.998;2023-11-19T02:13:25;12.80;99.90
48946;DHT22;34999;50.940;3.998;2023-11-19T02:15:54;12.80;99.90
48946;DHT22;34999;50.940;3.998;2023-11-19T02:18:24;12.80;99.90
48946;DHT22;34999;50.940;3.998;2023-11-19T02:20:55;12.70;99.90
48946;DHT22;34999;50.940;3.998;2023-11-19T02:23:26;12.70;99.90
48946;DHT22;34999;50.940;3.998;2023-11-19T02:26:02;12.70;99.90
48946;DHT22;34999;50.940;3.998;2023-11-19T02:28:34;12.80;99.90
48946;DHT22;34999;50.940;3.998;2023-11-19T02:31:04;12.80;99.90
48946;DHT22;34999;50.940;3.998;2023-11-19T02:33:36;12.80;99.90
48946;DHT22;34999;50.940;3.998;2023-11-19T02:36:05;12.80;99.90
48946;DHT22;34999;50.940;3.998;2023-11-19T02:38:35;12.70;99.90
48946;DHT22;34999;50.940;3.998;2023-11-19T02:41:04;12.60;99.90
48946;DHT22;34999;50.940;3.998;2023-11-19T02:43:35;12.50;99.90
48946;DHT22;34999;50.940;3.998;2023-11-19T02:46:04;12.40;99.90
48946;DHT22;34999;50.940;3.998;2023-11-19T02:48:37;12.40;99.90
48946;DHT22;34999;50.940;3.998;2023-11-19T02:51:05;12.40;99.90
48946;DHT22;34999;50.940;3.998;2023-11-19T02:53:37;12.40;99.90
48946;DHT22;34999;50.940;3.998;2023-11-19T02:56:07;12.40;99.90
48946;DHT22;34999;50.940;3.998;2023-11-19T02:58:47;12.40;99.90
48946;DHT22;34999;50.940;3.998;2023-11-19T03:01:22;12.40;99.90
48946;DHT22;34999;50.940;3.998;2023-11-19T03:03:57;12.30;99.90
48946;DHT22;34999;50.940;3.998;2023-11-19T03:06:26;12.20;99.90
48946;DHT22;34999;50.940;3.998;2023-11-19T03:08:56;12.20;99.90
48946;DHT22;34999;50.940;3.998;2023-11-19T03:11:24;12.20;99.90
48946;DHT22;34999;50.940;3.998;2023-11-19T03:13:53;12.30;99.90
48946;DHT22;34999;50.940;3.998;2023-11-19T03:16:22;12.30;99.90
48946;DHT22;34999;50.940;3.998;2023-11-19T03:18:50;12.30;99.90
48946;DHT22;34999;50.940;3.998;2023-11-19T03:21:19;12.30;99.90
48946;DHT22;34999;50.940;3.998;2023-11-19T03:23:47;12.30;99.90
48946;DHT22;34999;50.940;3.998;2023-11-19T03:26:15;12.30;99.90
48946;DHT22;34999;50.940;3.998;2023-11-19T03:28:43;12.30;99.90
48946;DHT22;34999;50.940;3.998;2023-11-19T03:31:13;12.30;99.90
48946;DHT22;34999;50.940;3.998;2023-11-19T03:33:41;12.20;99.90
48946;DHT22;34999;50.940;3.998;2023-11-19T03:36:09;12.20;99.90
48946;DHT22;34999;50.940;3.998;2023-11-19T03:38:37;12.20;99.90
48946;DHT22;34999;50.940;3.998;2023-11-19T03:41:10;12.20;99.90
48946;DHT22;34999;50.940;3.998;2023-11-19T03:43:39;12.10;99.90
48946;DHT22;34999;50.940;3.998;2023-11-19T03:46:17;12.10;99.90
48946;DHT22;34999;50.940;3.998;2023-11-19T03:48:48;12.10;99.90
48946;DHT22;34999;50.940;3.998;2023-11-19T03:51:16;12.10;99.90
48946;DHT22;34999;50.940;3.998;2023-11-19T03:53:45;12.10;99.90
48946;DHT22;34999;50.940;3.998;2023-11-19T03:56:14;12.10;99.90
48946;DHT22;34999;50.940;3.998;2023-11-19T03:58:42;12.10;99.90
48946;DHT22;34999;50.940;3.998;2023-11-19T04:01:13;12.20;99.90
48946;DHT22;34999;50.940;3.998;2023-11-19T04:03:43;12.20;99.90
48946;DHT22;34999;50.940;3.998;2023-11-19T04:06:14;12.20;99.90
48946;DHT22;34999;50.940;3.998;2023-11-19T04:08:42;12.20;99.90
48946;DHT22;34999;50.940;3.998;2023-11-19T04:11:11;12.30;99.90
48946;DHT22;34999;50.940;3.998;2023-11-19T04:13:39;12.20;99.90
48946;DHT22;34999;50.940;3.998;2023-11-19T04:16:08;12.30;99.90
48946;DHT22;34999;50.940;3.998;2023-11-19T04:18:37;12.30;99.90
48946;DHT22;34999;50.940;3.998;2023-11-19T04:21:07;12.30;99.90
48946;DHT22;34999;50.940;3.998;2023-11-19T04:23:36;12.30;99.90
48946;DHT22;34999;50.940;3.998;2023-11-19T04:26:04;12.30;99.90
48946;DHT22;34999;50.940;3.998;2023-11-19T04:28:36;12.20;99.90
48946;DHT22;34999;50.940;3.998;2023-11-19T04:31:04;12.20;99.90
48946;DHT22;34999;50.940;3.998;2023-11-19T04:33:33;12.10;99.90
48946;DHT22;34999;50.940;3.998;2023-11-19T04:36:01;12.10;99.90
48946;DHT22;34999;50.940;3.998;2023-11-19T04:38:32;12.10;99.90
48946;DHT22;34999;50.940;3.998;2023-11-19T04:41:00;12.10;99.90
48946;DHT22;34999;50.940;3.998;2023-11-19T04:43:32;12.10;99.90
48946;DHT22;34999;50.940;3.998;2023-11-19T04:46:00;12.10;99.90
48946;DHT22;34999;50.940;3.998;2023-11-19T04:48:31;12.10;99.90
48946;DHT22;34999;50.940;3.998;2023-11-19T04:51:08;12.10;99.90
48946;DHT22;34999;50.940;3.998;2023-11-19T04:53:38;12.10;99.90
48946;DHT22;34999;50.940;3.998;2023-11-19T04:56:10;12.00;99.90
48946;DHT22;34999;50.940;3.998;2023-11-19T04:58:38;12.10;99.90
48946;DHT22;34999;50.940;3.998;2023-11-19T05:01:13;12.00;99.90
48946;DHT22;34999;50.940;3.998;2023-11-19T05:03:43;11.90;99.90
48946;DHT22;34999;50.940;3.998;2023-11-19T05:06:12;11.90;99.90
48946;DHT22;34999;50.940;3.998;2023-11-19T05:08:42;11.80;99.90
48946;DHT22;34999;50.940;3.998;2023-11-19T05:11:10;11.70;99.90
48946;DHT22;34999;50.940;3.998;2023-11-19T05:13:40;11.80;99.90
48946;DHT22;34999;50.940;3.998;2023-11-19T05:16:09;11.70;99.90
48946;DHT22;34999;50.940;3.998;2023-11-19T05:18:37;11.80;99.90
48946;DHT22;34999;50.940;3.998;2023-11-19T05:21:09;11.80;99.90
48946;DHT22;34999;50.940;3.998;2023-11-19T05:23:37;11.80;99.90
48946;DHT22;34999;50.940;3.998;2023-11-19T05:26:07;11.80;99.90
48946;DHT22;34999;50.940;3.998;2023-11-19T05:28:37;11.70;99.90
48946;DHT22;34999;50.940;3.998;2023-11-19T05:31:06;11.70;99.90
48946;DHT22;34999;50.940;3.998;2023-11-19T05:33:34;11.70;99.90
48946;DHT22;34999;50.940;3.998;2023-11-19T05:36:04;11.70;99.90
48946;DHT22;34999;50.940;3.998;2023-11-19T05:38:32;11.60;99.90
48946;DHT22;34999;50.940;3.998;2023-11-19T05:41:00;11.60;99.90
48946;DHT22;34999;50.940;3.998;2023-11-19T05:43:30;11.60;99.90
48946;DHT22;34999;50.940;3.998;2023-11-19T05:45:58;11.50;99.90
48946;DHT22;34999;50.940;3.998;2023-11-19T05:48:28;11.50;99.90
48946;DHT22;34999;50.940;3.998;2023-11-19T05:50:56;11.40;99.90
48946;DHT22;34999;50.940;3.998;2023-11-19T05:53:24;11.40;99.90
48946;DHT22;34999;50.940;3.998;2023-11-19T05:55:55;11.40;99.90
48946;DHT22;34999;50.940;3.998;2023-11-19T05:58:24;11.40;99.90
48946;DHT22;34999;50.940;3.998;2023-11-19T06:00:57;11.30;99.90
48946;DHT22;34999;50.940;3.998;2023-11-19T06:03:29;11.20;99.90
48946;DHT22;34999;50.940;3.998;2023-11-19T06:05:58;11.30;99.90
48946;DHT22;34999;50.940;3.998;2023-11-19T06:08:26;11.20;99.90
48946;DHT22;34999;50.940;3.998;2023-11-19T06:10:54;11.20;99.90
48946;DHT22;34999;50.940;3.998;2023-11-19T06:13:23;11.20;99.90
48946;DHT22;34999;50.940;3.998;2023-11-19T06:15:52;11.20;99.90
48946;DHT22;34999;50.940;3.998;2023-11-19T06:18:22;11.20;99.90
48946;DHT22;34999;50.940;3.998;2023-11-19T06:20:50;11.20;99.90
48946;DHT22;34999;50.940;3.998;2023-11-19T06:23:19;11.20;99.90
48946;DHT22;34999;50.940;3.998;2023-11-19T06:25:47;11.20;99.90
48946;DHT22;34999;50.940;3.998;2023-11-19T06:28:15;11.20;99.90
48946;DHT22;34999;50.940;3.998;2023-11-19T06:30:43;11.20;99.90
48946;DHT22;34999;50.940;3.998;2023-11-19T06:33:15;11.20;99.90
48946;DHT22;34999;50.940;3.998;2023-11-19T06:35:45;11.20;99.90
48946;DHT22;34999;50.940;3.998;2023-11-19T06:38:15;11.10;99.90
48946;DHT22;34999;50.940;3.998;2023-11-19T06:40:44;11.10;99.90
48946;DHT22;34999;50.940;3.998;2023-11-19T06:43:12;11.10;99.90
48946;DHT22;34999;50.940;3.998;2023-11-19T06:45:41;11.10;99.90
48946;DHT22;34999;50.940;3.998;2023-11-19T06:48:09;11.10;99.90
48946;DHT22;34999;50.940;3.998;2023-11-19T06:50:37;11.10;99.90
48946;DHT22;34999;50.940;3.998;2023-11-19T06:53:07;11.10;99.90
48946;DHT22;34999;50.940;3.998;2023-11-19T06:55:37;11.10;99.90
48946;DHT22;34999;50.940;3.998;2023-11-19T06:58:05;11.10;99.90
48946;DHT22;34999;50.940;3.998;2023-11-19T07:00:34;11.10;99.90
48946;DHT22;34999;50.940;3.998;2023-11-19T07:03:02;11.20;99.90
48946;DHT22;34999;50.940;3.998;2023-11-19T07:05:33;11.20;99.90
48946;DHT22;34999;50.940;3.998;2023-11-19T07:08:03;11.20;99.90
48946;DHT22;34999;50.940;3.998;2023-11-19T07:10:32;11.30;99.90
48946;DHT22;34999;50.940;3.998;2023-11-19T07:13:00;11.30;99.90
48946;DHT22;34999;50.940;3.998;2023-11-19T07:15:33;11.30;99.90
48946;DHT22;34999;50.940;3.998;2023-11-19T07:18:01;11.30;99.90
48946;DHT22;34999;50.940;3.998;2023-11-19T07:20:30;11.30;99.90
48946;DHT22;34999;50.940;3.998;2023-11-19T07:23:00;11.40;99.90
48946;DHT22;34999;50.940;3.998;2023-11-19T07:25:28;11.40;99.90
48946;DHT22;34999;50.940;3.998;2023-11-19T07:27:57;11.40;99.90
48946;DHT22;34999;50.940;3.998;2023-11-19T07:30:26;11.40;99.90
48946;DHT22;34999;50.940;3.998;2023-11-19T07:32:55;11.50;99.90
48946;DHT22;34999;50.940;3.998;2023-11-19T07:35:24;11.40;99.90
48946;DHT22;34999;50.940;3.998;2023-11-19T07:37:52;11.40;99.90
48946;DHT22;34999;50.940;3.998;2023-11-19T07:40:20;11.40;99.90
48946;DHT22;34999;50.940;3.998;2023-11-19T07:42:48;11.50;99.90
48946;DHT22;34999;50.940;3.998;2023-11-19T07:45:18;11.50;99.90
48946;DHT22;34999;50.940;3.998;2023-11-19T07:47:46;11.60;99.90
48946;DHT22;34999;50.940;3.998;2023-11-19T07:50:15;11.70;99.90
48946;DHT22;34999;50.940;3.998;2023-11-19T07:52:46;11.70;99.90
48946;DHT22;34999;50.940;3.998;2023-11-19T07:55:14;11.80;99.90
48946;DHT22;34999;50.940;3.998;2023-11-19T07:57:42;11.90;99.90
48946;DHT22;34999;50.940;3.998;2023-11-19T08:00:12;11.90;99.90
48946;DHT22;34999;50.940;3.998;2023-11-19T08:02:41;12.00;99.90
48946;DHT22;34999;50.940;3.998;2023-11-19T08:05:10;12.10;99.90
48946;DHT22;34999;50.940;3.998;2023-11-19T08:07:39;12.00;99.90
48946;DHT22;34999;50.940;3.998;2023-11-19T08:10:08;12.10;99.90
48946;DHT22;34999;50.940;3.998;2023-11-19T08:12:38;12.00;99.90
48946;DHT22;34999;50.940;3.998;2023-11-19T08:15:06;12.00;99.90
48946;DHT22;34999;50.940;3.998;2023-11-19T08:17:35;12.00;99.90
48946;DHT22;34999;50.940;3.998;2023-11-19T08:20:06;12.00;99.90
48946;DHT22;34999;50.940;3.998;2023-11-19T08:22:38;12.00;99.90
48946;DHT22;34999;50.940;3.998;2023-11-19T08:25:07;12.00;99.90
48946;DHT22;34999;50.940;3.998;2023-11-19T08:27:35;11.90;99.90
48946;DHT22;34999;50.940;3.998;2023-11-19T08:30:05;11.90;99.90
48946;DHT22;34999;50.940;3.998;2023-11-19T08:32:34;11.90;99.90
48946;DHT22;34999;50.940;3.998;2023-11-19T08:35:05;12.00;99.90
48946;DHT22;34999;50.940;3.998;2023-11-19T08:37:33;11.90;99.90
48946;DHT22;34999;50.940;3.998;2023-11-19T08:40:04;11.90;99.90
48946;DHT22;34999;50.940;3.998;2023-11-19T08:42:32;11.80;99.90
48946;DHT22;34999;50.940;3.998;2023-11-19T08:45:00;11.80;99.90
48946;DHT22;34999;50.940;3.998;2023-11-19T08:47:29;11.80;99.90
48946;DHT22;34999;50.940;3.998;2023-11-19T08:49:57;11.90;99.90
48946;DHT22;34999;50.940;3.998;2023-11-19T08:52:29;12.00;99.90
48946;DHT22;34999;50.940;3.998;2023-11-19T08:55:01;12.00;99.90
48946;DHT22;34999;50.940;3.998;2023-11-19T08:57:30;12.10;99.90
48946;DHT22;34999;50.940;3.998;2023-11-19T08:59:58;12.10;99.90
48946;DHT22;34999;50.940;3.998;2023-11-19T09:02:26;12.10;99.90
48946;DHT22;34999;50.940;3.998;2023-11-19T09:04:54;12.20;99.90
48946;DHT22;34999;50.940;3.998;2023-11-19T09:07:23;12.20;99.90
48946;DHT22;34999;50.940;3.998;2023-11-19T09:09:52;12.30;99.90
48946;DHT22;34999;50.940;3.998;2023-11-19T09:12:20;12.40;99.90
48946;DHT22;34999;50.940;3.998;2023-11-19T09:14:49;12.50;99.90
48946;DHT22;34999;50.940;3.998;2023-11-19T09:17:17;12.60;99.90
48946;DHT22;34999;50.940;3.998;2023-11-19T09:19:45;12.80;99.90
48946;DHT22;34999;50.940;3.998;2023-11-19T09:22:13;12.90;99.90
48946;DHT22;34999;50.940;3.998;2023-11-19T09:24:44;13.00;99.90
48946;DHT22;34999;50.940;3.998;2023-11-19T09:27:14;13.20;99.90
48946;DHT22;34999;50.940;3.998;2023-11-19T09:29:42;13.40;99.90
48946;DHT22;34999;50.940;3.998;2023-11-19T09:32:13;13.40;99.90
48946;DHT22;34999;50.940;3.998;2023-11-19T09:34:41;13.40;99.90
48946;DHT22;34999;50.940;3.998;2023-11-19T09:37:09;13.40;99.90
48946;DHT22;34999;50.940;3.998;2023-11-19T09:39:40;13.50;99.90
48946;DHT22;34999;50.940;3.998;2023-11-19T09:42:10;13.70;99.90
48946;DHT22;34999;50.940;3.998;2023-11-19T09:44:42;13.80;99.90
48946;DHT22;34999;50.940;3.998;2023-11-19T09:47:11;13.70;99.90
48946;DHT22;34999;50.940;3.998;2023-11-19T09:49:40;13.70;99.90
48946;DHT22;34999;50.940;3.998;2023-11-19T09:52:08;13.70;99.90
48946;DHT22;34999;50.940;3.998;2023-11-19T09:54:37;13.70;99.90
48946;DHT22;34999;50.940;3.998;2023-11-19T09:57:06;13.70;99.90
48946;DHT22;34999;50.940;3.998;2023-11-19T09:59:37;13.70;99.90
48946;DHT22;34999;50.940;3.998;2023-11-19T10:02:08;13.80;99.90
48946;DHT22;34999;50.940;3.998;2023-11-19T10:04:38;13.90;99.90
48946;DHT22;34999;50.940;3.998;2023-11-19T10:07:07;13.90;99.90
48946;DHT22;34999;50.940;3.998;2023-11-19T10:09:36;13.90;99.90
48946;DHT22;34999;50.940;3.998;2023-11-19T10:12:04;13.70;99.90
48946;DHT22;34999;50.940;3.998;2023-11-19T10:14:35;13.50;99.90
48946;DHT22;34999;50.940;3.998;2023-11-19T10:17:08;13.30;99.90
48946;DHT22;34999;50.940;3.998;2023-11-19T10:19:40;13.20;99.90
48946;DHT22;34999;50.940;3.998;2023-11-19T10:22:08;13.10;99.90
48946;DHT22;34999;50.940;3.998;2023-11-19T10:24:36;13.10;99.90
48946;DHT22;34999;50.940;3.998;2023-11-19T10:27:14;13.00;99.90
48946;DHT22;34999;50.940;3.998;2023-11-19T10:29:45;12.90;99.90
48946;DHT22;34999;50.940;3.998;2023-11-19T10:32:15;12.90;99.90
48946;DHT22;34999;50.940;3.998;2023-11-19T10:35:01;12.80;99.90
48946;DHT22;34999;50.940;3.998;2023-11-19T10:37:32;12.90;99.90
48946;DHT22;34999;50.940;3.998;2023-11-19T10:40:03;12.90;99.90
48946;DHT22;34999;50.940;3.998;2023-11-19T10:42:37;13.10;99.90
48946;DHT22;34999;50.940;3.998;2023-11-19T10:45:21;13.30;99.90
48946;DHT22;34999;50.940;3.998;2023-11-19T10:47:54;13.50;99.90
48946;DHT22;34999;50.940;3.998;2023-11-19T10:50:23;13.70;99.90
48946;DHT22;34999;50.940;3.998;2023-11-19T10:52:55;13.90;99.90
48946;DHT22;34999;50.940;3.998;2023-11-19T10:55:28;14.00;99.90
48946;DHT22;34999;50.940;3.998;2023-11-19T10:57:59;14.10;99.90
48946;DHT22;34999;50.940;3.998;2023-11-19T11:00:29;14.10;99.90
48946;DHT22;34999;50.940;3.998;2023-11-19T11:03:02;14.00;99.90
48946;DHT22;34999;50.940;3.998;2023-11-19T11:05:33;14.00;99.90
48946;DHT22;34999;50.940;3.998;2023-11-19T11:08:04;14.00;99.90
48946;DHT22;34999;50.940;3.998;2023-11-19T11:10:39;14.00;99.90
48946;DHT22;34999;50.940;3.998;2023-11-19T11:13:24;14.00;99.90
48946;DHT22;34999;50.940;3.998;2023-11-19T11:15:55;14.00;99.90
48946;DHT22;34999;50.940;3.998;2023-11-19T11:18:27;14.00;99.90
48946;DHT22;34999;50.940;3.998;2023-11-19T11:20:59;14.00;99.90
48946;DHT22;34999;50.940;3.998;2023-11-19T11:23:45;14.00;99.90
48946;DHT22;34999;50.940;3.998;2023-11-19T11:26:35;14.00;99.90
48946;DHT22;34999;50.940;3.998;2023-11-19T11:29:16;13.90;99.90
48946;DHT22;34999;50.940;3.998;2023-11-19T11:31:56;14.00;99.90
48946;DHT22;34999;50.940;3.998;2023-11-19T11:34:43;14.10;99.90
48946;DHT22;34999;50.940;3.998;2023-11-19T11:37:18;14.10;99.90
48946;DHT22;34999;50.940;3.998;2023-11-19T11:39:50;14.00;99.90
48946;DHT22;34999;50.940;3.998;2023-11-19T11:42:32;13.90;99.90
48946;DHT22;34999;50.940;3.998;2023-11-19T11:45:02;13.90;99.90
48946;DHT22;34999;50.940;3.998;2023-11-19T11:50:53;14.20;99.90
48946;DHT22;34999;50.940;3.998;2023-11-19T11:53:22;14.30;99.90
48946;DHT22;34999;50.940;3.998;2023-11-19T11:55:58;14.40;99.90
48946;DHT22;34999;50.940;3.998;2023-11-19T11:58:35;14.40;99.90
48946;DHT22;34999;50.940;3.998;2023-11-19T12:01:05;14.20;99.90
48946;DHT22;34999;50.940;3.998;2023-11-19T12:03:33;14.00;99.90
48946;DHT22;34999;50.940;3.998;2023-11-19T12:06:04;13.80;99.90
48946;DHT22;34999;50.940;3.998;2023-11-19T12:08:34;13.70;99.90
48946;DHT22;34999;50.940;3.998;2023-11-19T12:11:19;13.70;99.90
48946;DHT22;34999;50.940;3.998;2023-11-19T12:13:54;13.60;99.90
48946;DHT22;34999;50.940;3.998;2023-11-19T12:16:25;13.50;99.90
48946;DHT22;34999;50.940;3.998;2023-11-19T12:18:55;13.50;99.90
48946;DHT22;34999;50.940;3.998;2023-11-19T12:21:31;13.40;99.90
48946;DHT22;34999;50.940;3.998;2023-11-19T12:24:00;13.20;99.90
48946;DHT22;34999;50.940;3.998;2023-11-19T12:26:36;13.10;99.90
48946;DHT22;34999;50.940;3.998;2023-11-19T12:29:05;13.10;99.90
48946;DHT22;34999;50.940;3.998;2023-11-19T12:31:36;13.20;99.90
48946;DHT22;34999;50.940;3.998;2023-11-19T12:34:09;13.20;99.90
48946;DHT22;34999;50.940;3.998;2023-11-19T12:36:41;13.30;99.90
48946;DHT22;34999;50.940;3.998;2023-11-19T12:39:10;13.40;99.90
48946;DHT22;34999;50.940;3.998;2023-11-19T12:41:51;13.40;99.90
48946;DHT22;34999;50.940;3.998;2023-11-19T12:44:20;13.30;99.90
48946;DHT22;34999;50.940;3.998;2023-11-19T12:47:05;13.30;99.90
48946;DHT22;34999;50.940;3.998;2023-11-19T12:49:34;13.20;99.90
48946;DHT22;34999;50.940;3.998;2023-11-19T12:52:11;13.20;99.90
48946;DHT22;34999;50.940;3.998;2023-11-19T12:54:40;13.10;99.90
48946;DHT22;34999;50.940;3.998;2023-11-19T12:57:09;13.10;99.90
48946;DHT22;34999;50.940;3.998;2023-11-19T12:59:37;13.00;99.90
48946;DHT22;34999;50.940;3.998;2023-11-19T13:02:05;13.00;99.90
48946;DHT22;34999;50.940;3.998;2023-11-19T13:04:34;12.90;99.90
48946;DHT22;34999;50.940;3.998;2023-11-19T13:07:04;12.80;99.90
48946;DHT22;34999;50.940;3.998;2023-11-19T13:09:33;12.70;99.90
48946;DHT22;34999;50.940;3.998;2023-11-19T13:12:12;12.60;99.90
48946;DHT22;34999;50.940;3.998;2023-11-19T13:14:41;12.60;99.90
48946;DHT22;34999;50.940;3.998;2023-11-19T13:17:13;12.60;99.90
48946;DHT22;34999;50.940;3.998;2023-11-19T13:19:43;12.60;99.90
48946;DHT22;34999;50.940;3.998;2023-11-19T13:22:13;12.60;99.90
48946;DHT22;34999;50.940;3.998;2023-11-19T13:24:42;12.60;99.90
48946;DHT22;34999;50.940;3.998;2023-11-19T13:27:10;12.60;99.90
48946;DHT22;34999;50.940;3.998;2023-11-19T13:29:38;12.60;99.90
48946;DHT22;34999;50.940;3.998;2023-11-19T13:32:06;12.70;99.90
48946;DHT22;34999;50.940;3.998;2023-11-19T13:34:35;12.80;99.90
48946;DHT22;34999;50.940;3.998;2023-11-19T13:37:04;12.90;99.90
48946;DHT22;34999;50.940;3.998;2023-11-19T13:39:33;13.00;99.90
48946;DHT22;34999;50.940;3.998;2023-11-19T13:42:02;13.00;99.90
48946;DHT22;34999;50.940;3.998;2023-11-19T13:44:33;13.00;99.90
48946;DHT22;34999;50.940;3.998;2023-11-19T13:47:01;13.10;99.90
48946;DHT22;34999;50.940;3.998;2023-11-19T13:49:29;13.10;99.90
48946;DHT22;34999;50.940;3.998;2023-11-19T13:51:58;13.10;99.90
48946;DHT22;34999;50.940;3.998;2023-11-19T13:54:26;13.10;99.90
48946;DHT22;34999;50.940;3.998;2023-11-19T13:56:56;13.10;99.90
48946;DHT22;34999;50.940;3.998;2023-11-19T13:59:25;13.00;99.90
48946;DHT22;34999;50.940;3.998;2023-11-19T14:01:53;13.10;99.90
48946;DHT22;34999;50.940;3.998;2023-11-19T14:04:22;13.00;99.90
48946;DHT22;34999;50.940;3.998;2023-11-19T14:06:50;12.90;99.90
48946;DHT22;34999;50.940;3.998;2023-11-19T14:09:19;12.90;99.90
48946;DHT22;34999;50.940;3.998;2023-11-19T14:11:48;12.80;99.90
48946;DHT22;34999;50.940;3.998;2023-11-19T14:14:19;12.70;99.90
48946;DHT22;34999;50.940;3.998;2023-11-19T14:16:47;12.60;99.90
48946;DHT22;34999;50.940;3.998;2023-11-19T14:19:16;12.60;99.90
48946;DHT22;34999;50.940;3.998;2023-11-19T14:21:44;12.50;99.90
48946;DHT22;34999;50.940;3.998;2023-11-19T14:24:14;12.40;99.90
48946;DHT22;34999;50.940;3.998;2023-11-19T14:26:45;12.40;99.90
48946;DHT22;34999;50.940;3.998;2023-11-19T14:29:14;12.40;99.90
48946;DHT22;34999;50.940;3.998;2023-11-19T14:31:43;12.40;99.90
48946;DHT22;34999;50.940;3.998;2023-11-19T14:34:12;12.50;99.90
48946;DHT22;34999;50.940;3.998;2023-11-19T14:36:40;12.50;99.90
48946;DHT22;34999;50.940;3.998;2023-11-19T14:39:08;12.50;99.90
48946;DHT22;34999;50.940;3.998;2023-11-19T14:41:36;12.50;99.90
48946;DHT22;34999;50.940;3.998;2023-11-19T14:44:06;12.60;99.90
48946;DHT22;34999;50.940;3.998;2023-11-19T14:46:34;12.70;99.90
48946;DHT22;34999;50.940;3.998;2023-11-19T14:49:04;12.70;99.90
48946;DHT22;34999;50.940;3.998;2023-11-19T14:51:35;12.80;99.90
48946;DHT22;34999;50.940;3.998;2023-11-19T14:54:04;12.80;99.90
48946;DHT22;34999;50.940;3.998;2023-11-19T14:56:33;12.80;99.90
48946;DHT22;34999;50.940;3.998;2023-11-19T14:59:01;12.70;99.90
48946;DHT22;34999;50.940;3.998;2023-11-19T15:01:29;12.70;99.90
48946;DHT22;34999;50.940;3.998;2023-11-19T15:03:57;12.70;99.90
48946;DHT22;34999;50.940;3.998;2023-11-19T15:06:32;12.60;99.90
48946;DHT22;34999;50.940;3.998;2023-11-19T15:09:01;12.60;99.90
48946;DHT22;34999;50.940;3.998;2023-11-19T15:11:29;12.60;99.90
48946;DHT22;34999;50.940;3.998;2023-11-19T15:13:58;12.60;99.90
48946;DHT22;34999;50.940;3.998;2023-11-19T15:16:26;12.50;99.90
48946;DHT22;34999;50.940;3.998;2023-11-19T15:18:58;12.50;99.90
48946;DHT22;34999;50.940;3.998;2023-11-19T15:21:27;12.50;99.90
48946;DHT22;34999;50.940;3.998;2023-11-19T15:23:57;12.50;99.90
48946;DHT22;34999;50.940;3.998;2023-11-19T15:26:25;12.50;99.90
48946;DHT22;34999;50.940;3.998;2023-11-19T15:28:53;12.50;99.90
48946;DHT22;34999;50.940;3.998;2023-11-19T15:31:24;12.50;99.90
48946;DHT22;34999;50.940;3.998;2023-11-19T15:33:52;12.50;99.90
48946;DHT22;34999;50.940;3.998;2023-11-19T15:36:21;12.50;99.90
48946;DHT22;34999;50.940;3.998;2023-11-19T15:38:50;12.50;99.90
48946;DHT22;34999;50.940;3.998;2023-11-19T15:41:21;12.60;99.90
48946;DHT22;34999;50.940;3.998;2023-11-19T15:43:49;12.60;99.90
48946;DHT22;34999;50.940;3.998;2023-11-19T15:46:17;12.50;99.90
48946;DHT22;34999;50.940;3.998;2023-11-19T15:48:45;12.50;99.90
48946;DHT22;34999;50.940;3.998;2023-11-19T15:51:14;12.40;99.90